Time;durP1;ratioP1;P1;durP2;ratioP2;P2;SDS_P1;SDS_P2;PMS_P1;PMS_P2;Temp;Humidity;BMP_temperature;BMP_pressure;BME280_temperature;BME280_humidity;BME280_pressure;Samples;Min_cycle;Max_cycle;Signal;HPM_P1;HPM_P2
2023/05/13 00:00:10;;;;;;;2.10;1.77;;;;;;;9.40;55.99;93868.28;523775;28;765;-59
2023/05/13 00:00:25;;;;;;;2.00;1.80;;;;;;;9.33;55.77;93871.69;523903;28;883;-59
2023/05/13 00:00:41;;;;;;;2.80;2.10;;;;;;;9.35;55.76;93873.91;524063;28;1177;-59
2023/05/13 00:00:56;;;;;;;3.43;2.10;;;;;;;9.38;55.82;93870.84;523865;28;836;-59
2023/05/13 00:01:12;;;;;;;2.75;1.80;;;;;;;9.39;55.65;93871.56;523920;28;789;-60
2023/05/13 00:01:27;;;;;;;3.03;1.87;;;;;;;9.42;55.57;93878.81;522814;28;1216;-59
2023/05/13 00:01:42;;;;;;;2.95;2.03;;;;;;;9.44;55.58;93873.50;523639;28;840;-59
2023/05/13 00:01:58;;;;;;;4.10;2.10;;;;;;;9.50;55.77;93876.88;522746;28;910;-59
2023/05/13 00:02:14;;;;;;;4.88;2.47;;;;;;;9.52;55.87;93871.56;522047;28;1716;-59
2023/05/13 00:02:29;;;;;;;4.77;2.60;;;;;;;9.53;55.65;93870.31;523802;28;1422;-59
2023/05/13 00:02:44;;;;;;;9.23;2.30;;;;;;;9.54;55.90;93869.78;522425;28;1219;-59
2023/05/13 00:03:00;;;;;;;8.60;2.22;;;;;;;9.57;55.89;93876.97;523069;28;1165;-59
2023/05/13 00:03:15;;;;;;;3.00;2.10;;;;;;;9.58;55.39;93867.44;524032;28;817;-59
2023/05/13 00:03:31;;;;;;;3.80;2.03;;;;;;;9.58;55.69;93875.69;523961;28;804;-59
2023/05/13 00:03:46;;;;;;;4.47;2.53;;;;;;;9.53;55.45;93870.31;524281;28;788;-59
2023/05/13 00:04:01;;;;;;;3.80;2.63;;;;;;;9.58;55.57;93869.44;523913;28;965;-59
2023/05/13 00:04:17;;;;;;;4.35;2.30;;;;;;;9.57;55.57;93870.72;524019;28;839;-59
2023/05/13 00:04:33;;;;;;;3.33;2.23;;;;;;;9.58;55.65;93872.94;523864;28;1014;-59
2023/05/13 00:04:48;;;;;;;3.50;2.30;;;;;;;9.62;55.44;93869.84;524032;28;994;-59
2023/05/13 00:05:04;;;;;;;3.50;2.40;;;;;;;9.51;55.64;93854.28;523857;28;1097;-59
2023/05/13 00:05:19;;;;;;;3.42;2.65;;;;;;;9.64;55.65;93870.81;523916;28;793;-59
2023/05/13 00:05:36;;;;;;;4.43;2.88;;;;;;;9.65;55.65;93863.28;522915;28;957;-59
2023/05/13 00:05:51;;;;;;;4.32;2.88;;;;;;;9.70;55.53;93867.97;523690;28;1028;-60
2023/05/13 00:06:07;;;;;;;4.18;2.63;;;;;;;9.72;55.53;93866.13;523710;28;805;-59
2023/05/13 00:06:22;;;;;;;6.07;2.27;;;;;;;9.68;55.30;93871.22;522911;28;808;-59
2023/05/13 00:06:38;;;;;;;5.95;2.20;;;;;;;9.69;55.41;93869.97;522855;28;844;-59
2023/05/13 00:06:53;;;;;;;2.63;2.20;;;;;;;9.74;55.12;93868.38;523748;28;907;-59
2023/05/13 00:07:09;;;;;;;2.97;2.28;;;;;;;9.72;55.16;93879.19;523710;28;935;-59
2023/05/13 00:07:24;;;;;;;2.67;2.07;;;;;;;9.71;54.91;93870.16;523258;28;1062;-59
2023/05/13 00:07:41;;;;;;;3.90;2.10;;;;;;;9.73;54.99;93875.16;522094;28;1969;-59
2023/05/13 00:08:00;;;;;;;4.07;2.10;;;;;;;9.69;54.90;93861.69;521844;28;1042;-59
2023/05/13 00:08:16;;;;;;;2.70;1.88;;;;;;;9.78;55.07;93874.28;521890;28;864;-59
2023/05/13 00:08:31;;;;;;;3.27;1.90;;;;;;;9.80;54.78;93877.25;522880;28;1271;-59
2023/05/13 00:08:46;;;;;;;3.70;1.93;;;;;;;9.82;54.67;93874.72;524086;28;934;-59
2023/05/13 00:09:02;;;;;;;2.97;1.83;;;;;;;9.81;55.17;93876.00;523509;28;1015;-59
2023/05/13 00:09:17;;;;;;;3.07;2.10;;;;;;;9.76;55.14;93876.84;523886;28;1425;-60
2023/05/13 00:09:33;;;;;;;3.90;2.30;;;;;;;9.74;55.21;93882.16;524126;28;774;-59
2023/05/13 00:09:48;;;;;;;3.97;2.22;;;;;;;9.72;55.46;93870.91;524096;28;855;-59
2023/05/13 00:10:04;;;;;;;3.10;2.00;;;;;;;9.74;55.71;93876.63;524024;28;1178;-59
2023/05/13 00:10:19;;;;;;;2.50;2.00;;;;;;;9.73;55.72;93869.63;524773;28;1324;-59
2023/05/13 00:10:35;;;;;;;2.10;1.90;;;;;;;9.77;55.34;93872.78;522619;28;900;-59
2023/05/13 00:10:50;;;;;;;2.20;2.00;;;;;;;9.78;55.37;93874.28;523691;28;813;-59
2023/05/13 00:11:06;;;;;;;3.07;2.20;;;;;;;9.80;55.43;93877.25;523713;28;840;-59
2023/05/13 00:11:22;;;;;;;2.83;2.00;;;;;;;9.76;54.82;93872.06;522644;28;1684;-59
2023/05/13 00:11:37;;;;;;;2.55;1.90;;;;;;;9.50;54.39;93825.25;522801;28;773;-59
2023/05/13 00:11:52;;;;;;;2.77;1.73;;;;;;;9.77;54.27;93872.78;523194;28;1074;-59
2023/05/13 00:12:08;;;;;;;3.03;1.70;;;;;;;9.75;54.36;93870.59;523756;28;816;-59
2023/05/13 00:12:23;;;;;;;4.07;1.92;;;;;;;9.77;54.30;93867.28;523080;28;885;-59
2023/05/13 00:12:38;;;;;;;3.70;2.00;;;;;;;9.79;54.80;93875.75;522915;28;1595;-60
2023/05/13 00:12:54;;;;;;;4.25;2.10;;;;;;;9.80;54.76;93869.72;523695;28;1413;-59
2023/05/13 00:13:09;;;;;;;4.83;2.10;;;;;;;9.80;54.76;93878.00;523908;28;1414;-60
2023/05/13 00:13:25;;;;;;;3.13;1.90;;;;;;;9.79;54.60;93876.50;523818;28;1086;-60
2023/05/13 00:13:40;;;;;;;2.97;1.90;;;;;;;9.80;54.63;93871.75;524135;28;836;-60
2023/05/13 00:13:56;;;;;;;2.83;1.85;;;;;;;9.76;53.81;93872.06;524045;28;835;-60
2023/05/13 00:14:12;;;;;;;2.77;1.90;;;;;;;9.76;54.04;93871.31;523798;28;983;-59
2023/05/13 00:14:27;;;;;;;5.18;2.17;;;;;;;9.72;54.17;93862.66;523988;28;887;-60
2023/05/13 00:14:43;;;;;;;4.50;2.00;;;;;;;9.82;54.26;93869.94;524251;28;848;-59
2023/05/13 00:14:58;;;;;;;3.03;1.83;;;;;;;9.83;54.37;93867.94;523553;28;1363;-59
2023/05/13 00:15:13;;;;;;;7.67;2.17;;;;;;;9.84;54.19;93867.38;523989;28;880;-59
2023/05/13 00:15:29;;;;;;;8.23;2.30;;;;;;;9.74;54.23;93857.34;523967;28;820;-60
2023/05/13 00:15:44;;;;;;;3.60;2.13;;;;;;;9.81;54.63;93862.22;524188;28;915;-60
2023/05/13 00:16:00;;;;;;;2.27;2.07;;;;;;;9.73;54.92;93867.63;523431;28;1743;-60
2023/05/13 00:16:15;;;;;;;2.22;2.03;;;;;;;9.71;55.00;93866.66;521582;28;1265;-60
2023/05/13 00:16:31;;;;;;;2.53;1.93;;;;;;;9.77;55.08;93870.03;523118;28;1091;-60
2023/05/13 00:16:46;;;;;;;3.72;2.03;;;;;;;9.79;54.98;93873.00;524569;28;1134;-60
2023/05/13 00:17:03;;;;;;;3.93;2.13;;;;;;;9.79;55.14;93876.50;523723;28;808;-60
2023/05/13 00:17:19;;;;;;;3.83;2.30;;;;;;;9.80;54.92;93882.78;523787;28;943;-60
2023/05/13 00:17:34;;;;;;;4.03;2.45;;;;;;;9.76;55.00;93874.84;524123;28;805;-60
2023/05/13 00:17:49;;;;;;;3.63;2.27;;;;;;;9.75;54.94;93875.34;523851;28;813;-60
2023/05/13 00:18:05;;;;;;;3.97;2.07;;;;;;;9.75;55.00;93876.09;523679;28;1188;-60
2023/05/13 00:18:20;;;;;;;3.55;1.70;;;;;;;9.78;55.00;93874.28;523929;28;892;-60
2023/05/13 00:18:36;;;;;;;2.07;1.50;;;;;;;9.81;54.97;93873.25;524026;28;1616;-60
2023/05/13 00:18:51;;;;;;;2.50;1.77;;;;;;;9.81;54.90;93870.47;522119;28;796;-60
2023/05/13 00:19:06;;;;;;;2.40;1.90;;;;;;;9.82;55.16;93869.19;522301;28;883;-60
2023/05/13 00:19:22;;;;;;;2.20;1.97;;;;;;;9.83;55.13;93876.19;523889;28;1137;-60
2023/05/13 00:19:37;;;;;;;4.30;2.40;;;;;;;9.60;55.12;93840.06;524243;28;792;-60
2023/05/13 00:19:53;;;;;;;4.13;2.20;;;;;;;9.86;55.29;93870.34;524049;28;773;-60
2023/05/13 00:20:08;;;;;;;2.80;1.90;;;;;;;9.88;55.13;93872.56;523861;28;1012;-59
2023/05/13 00:20:23;;;;;;;3.72;1.90;;;;;;;9.89;55.06;93874.06;524006;28;792;-60
2023/05/13 00:20:39;;;;;;;2.67;1.73;;;;;;;9.90;55.07;93864.50;524231;28;939;-60
2023/05/13 00:20:55;;;;;;;2.08;1.88;;;;;;;9.93;55.28;93868.97;524229;28;1097;-60
2023/05/13 00:21:10;;;;;;;3.15;2.47;;;;;;;9.94;55.21;93864.91;523921;28;872;-59
2023/05/13 00:21:26;;;;;;;3.13;2.33;;;;;;;9.95;55.05;93863.66;523593;28;1767;-59
2023/05/13 00:21:41;;;;;;;2.50;1.90;;;;;;;9.95;55.14;93866.41;524201;28;900;-59
2023/05/13 00:21:57;;;;;;;3.57;2.07;;;;;;;9.74;55.13;93830.50;522491;28;1062;-58
2023/05/13 00:22:12;;;;;;;3.90;2.10;;;;;;;9.96;54.88;93865.13;523942;28;820;-59
2023/05/13 00:22:27;;;;;;;4.75;2.17;;;;;;;9.95;54.91;93863.66;523909;28;1383;-59
2023/05/13 00:22:43;;;;;;;4.63;2.30;;;;;;;9.93;54.96;93857.94;524218;28;868;-59
2023/05/13 00:22:58;;;;;;;3.60;2.43;;;;;;;9.91;55.15;93855.72;523900;28;855;-59
2023/05/13 00:23:13;;;;;;;5.95;2.70;;;;;;;9.87;54.75;93858.03;523967;28;927;-59
2023/05/13 00:23:29;;;;;;;5.93;2.60;;;;;;;9.88;54.67;93861.53;522956;28;1669;-59
2023/05/13 00:23:45;;;;;;;4.07;2.58;;;;;;;9.85;54.48;93857.81;523602;28;970;-59
2023/05/13 00:24:00;;;;;;;3.80;2.70;;;;;;;9.84;54.51;93858.38;523970;28;899;-58
2023/05/13 00:24:15;;;;;;;4.18;2.92;;;;;;;9.83;54.50;93860.38;523911;28;800;-58
2023/05/13 00:24:31;;;;;;;4.27;2.93;;;;;;;9.70;54.64;93843.13;524015;28;812;-59
2023/05/13 00:24:47;;;;;;;4.22;2.92;;;;;;;9.84;54.99;93853.59;523613;28;805;-58
2023/05/13 00:25:03;;;;;;;4.50;2.55;;;;;;;9.83;54.50;93860.38;523914;28;835;-58
2023/05/13 00:25:18;;;;;;;3.33;1.97;;;;;;;9.82;54.63;93866.44;523975;28;873;-59
2023/05/13 00:25:33;;;;;;;2.80;2.00;;;;;;;9.80;54.41;93857.97;524146;28;840;-59
2023/05/13 00:25:49;;;;;;;3.47;2.13;;;;;;;9.81;54.63;93859.44;523896;28;760;-59
2023/05/13 00:26:04;;;;;;;4.67;2.40;;;;;;;9.79;54.79;93859.22;523119;28;1715;-59
2023/05/13 00:26:20;;;;;;;4.57;2.33;;;;;;;9.79;54.84;93862.72;523937;28;939;-58
2023/05/13 00:26:35;;;;;;;3.83;2.33;;;;;;;9.80;54.92;93866.97;523791;28;1046;-58
2023/05/13 00:26:51;;;;;;;5.17;2.60;;;;;;;9.82;54.78;93869.94;522898;28;903;-59
2023/05/13 00:27:07;;;;;;;4.50;2.60;;;;;;;9.82;54.46;93866.44;521850;28;951;-58
2023/05/13 00:27:22;;;;;;;3.53;2.67;;;;;;;9.80;54.44;93860.72;521860;28;915;-60
2023/05/13 00:27:38;;;;;;;5.05;2.70;;;;;;;9.82;54.63;93869.19;522312;28;1918;-59
2023/05/13 00:27:53;;;;;;;4.93;2.60;;;;;;;9.61;54.73;93833.28;521908;28;1578;-59
2023/05/13 00:28:09;;;;;;;3.83;2.35;;;;;;;9.80;54.66;93861.47;523015;28;1141;-60
2023/05/13 00:28:25;;;;;;;3.80;2.40;;;;;;;9.81;54.96;93854.66;523089;28;908;-59
2023/05/13 00:28:40;;;;;;;3.47;2.20;;;;;;;9.82;54.84;93860.91;521627;28;1556;-58
2023/05/13 00:28:56;;;;;;;2.58;2.00;;;;;;;9.84;54.87;93863.88;520308;28;1347;-58
2023/05/13 00:29:11;;;;;;;4.10;2.20;;;;;;;9.83;55.05;93856.91;521674;28;888;-58
2023/05/13 00:29:26;;;;;;;4.45;2.20;;;;;;;9.77;54.77;93859.00;521630;28;1122;-59
2023/05/13 00:29:42;;;;;;;3.33;1.90;;;;;;;9.65;54.61;93863.28;521995;28;777;-59
2023/05/13 00:29:58;;;;;;;3.40;1.90;;;;;;;9.57;54.68;93868.69;521747;28;832;-58
2023/05/13 00:30:14;;;;;;;4.30;1.95;;;;;;;9.58;54.97;93861.16;521623;28;1036;-58
2023/05/13 00:30:29;;;;;;;4.37;2.13;;;;;;;9.55;54.98;93857.47;521719;28;841;-58
2023/05/13 00:30:44;;;;;;;3.28;2.10;;;;;;;9.58;55.25;93869.44;523418;28;1058;-58
2023/05/13 00:31:00;;;;;;;2.80;2.10;;;;;;;9.59;55.37;93865.41;523828;28;1228;-59
2023/05/13 00:31:15;;;;;;;3.17;2.27;;;;;;;9.64;55.21;93867.31;523419;28;1677;-59
2023/05/13 00:31:31;;;;;;;3.60;2.20;;;;;;;9.66;55.48;93862.75;521836;28;860;-58
2023/05/13 00:31:46;;;;;;;3.17;2.07;;;;;;;9.68;55.33;93865.72;524098;28;872;-59
2023/05/13 00:32:02;;;;;;;2.83;2.00;;;;;;;9.69;55.38;93858.94;523880;28;876;-58
2023/05/13 00:32:17;;;;;;;3.20;1.90;;;;;;;9.73;55.79;93861.34;523890;28;832;-58
2023/05/13 00:32:33;;;;;;;3.07;1.80;;;;;;;9.74;56.25;93868.38;523993;28;1114;-58
2023/05/13 00:32:48;;;;;;;2.88;2.00;;;;;;;9.77;56.10;93868.03;524000;28;895;-58
2023/05/13 00:33:06;;;;;;;2.40;1.92;;;;;;;9.75;56.17;93856.78;523891;28;876;-58
2023/05/13 00:33:21;;;;;;;2.13;1.90;;;;;;;9.82;55.88;93863.69;523724;28;844;-58
2023/05/13 00:33:37;;;;;;;2.50;2.00;;;;;;;9.85;55.88;93868.13;522966;28;1078;-58
2023/05/13 00:33:52;;;;;;;3.10;2.10;;;;;;;9.87;55.84;93865.59;522413;28;1095;-58
2023/05/13 00:34:07;;;;;;;2.83;1.80;;;;;;;9.86;55.54;93872.38;523731;28;1802;-58
2023/05/13 00:34:23;;;;;;;3.28;1.90;;;;;;;9.89;55.49;93871.31;523923;28;1136;-58
2023/05/13 00:34:38;;;;;;;3.33;2.00;;;;;;;9.90;55.70;93870.00;524159;28;832;-58
2023/05/13 00:34:53;;;;;;;1.80;1.60;;;;;;;9.90;55.43;93870.75;523890;28;1080;-58
2023/05/13 00:35:09;;;;;;;1.85;1.75;;;;;;;9.91;55.51;93872.25;522102;28;868;-58
2023/05/13 00:35:24;;;;;;;2.97;2.07;;;;;;;9.92;55.63;93870.97;521679;28;1170;-58
2023/05/13 00:35:40;;;;;;;3.17;1.95;;;;;;;9.94;55.89;93878.69;523950;28;1244;-58
2023/05/13 00:35:55;;;;;;;3.33;1.90;;;;;;;9.94;55.93;93878.69;523834;28;869;-59
2023/05/13 00:36:11;;;;;;;5.43;2.03;;;;;;;9.93;55.84;93872.47;522235;28;805;-58
2023/05/13 00:36:26;;;;;;;8.48;1.85;;;;;;;9.96;56.06;93881.69;521588;28;956;-58
2023/05/13 00:36:41;;;;;;;6.93;1.67;;;;;;;9.96;56.12;93878.94;522229;28;914;-58
2023/05/13 00:36:57;;;;;;;6.40;1.90;;;;;;;9.94;56.08;93878.69;522727;28;1034;-59
2023/05/13 00:37:12;;;;;;;3.67;2.07;;;;;;;9.95;56.35;93880.19;523764;28;943;-58
2023/05/13 00:37:28;;;;;;;2.45;2.10;;;;;;;9.97;56.24;93874.88;523863;28;871;-58
2023/05/13 00:37:43;;;;;;;5.10;2.27;;;;;;;9.96;56.39;93878.94;524198;28;919;-58
2023/05/13 00:37:59;;;;;;;5.13;2.15;;;;;;;9.98;56.68;93876.38;523980;28;940;-58
2023/05/13 00:38:14;;;;;;;2.23;1.83;;;;;;;9.98;56.26;93881.16;523895;28;839;-59
2023/05/13 00:38:30;;;;;;;2.40;2.00;;;;;;;9.97;56.24;93880.41;523856;28;1074;-58
2023/05/13 00:38:45;;;;;;;3.13;2.03;;;;;;;9.96;56.22;93875.44;524322;28;788;-59
2023/05/13 00:39:00;;;;;;;5.90;2.00;;;;;;;9.97;56.22;93876.91;523875;28;848;-58
2023/05/13 00:39:16;;;;;;;5.40;2.20;;;;;;;9.98;56.38;93881.91;523943;28;821;-58
2023/05/13 00:39:31;;;;;;;2.80;2.30;;;;;;;9.99;56.69;93882.63;523893;28;813;-58
2023/05/13 00:39:47;;;;;;;3.13;2.13;;;;;;;10.01;56.75;93883.56;524143;28;1012;-58
2023/05/13 00:40:03;;;;;;;3.20;2.08;;;;;;;10.02;56.66;93879.53;523778;28;1066;-58
2023/05/13 00:40:21;;;;;;;3.58;2.35;;;;;;;10.04;57.06;93881.75;523632;28;844;-59
2023/05/13 00:40:38;;;;;;;3.10;2.40;;;;;;;10.05;56.86;93883.25;522788;28;789;-58
2023/05/13 00:40:53;;;;;;;3.60;2.42;;;;;;;10.05;57.03;93883.97;523963;28;820;-59
2023/05/13 00:41:09;;;;;;;3.77;2.33;;;;;;;10.04;56.92;93881.75;523923;28;1121;-58
2023/05/13 00:41:24;;;;;;;3.22;2.33;;;;;;;10.04;57.20;93884.53;523331;28;986;-59
2023/05/13 00:41:40;;;;;;;3.97;2.50;;;;;;;10.04;57.11;93884.53;524037;28;1232;-59
2023/05/13 00:41:55;;;;;;;4.37;2.50;;;;;;;9.97;57.13;93874.13;523998;28;958;-58
2023/05/13 00:42:11;;;;;;;4.57;2.20;;;;;;;10.06;57.12;93885.47;523833;28;887;-58
2023/05/13 00:42:26;;;;;;;5.07;2.17;;;;;;;9.94;57.14;93862.16;524009;28;839;-58
2023/05/13 00:42:42;;;;;;;4.73;2.10;;;;;;;10.09;56.92;93881.63;524148;28;907;-59
2023/05/13 00:42:57;;;;;;;3.75;2.00;;;;;;;10.11;56.98;93887.41;523773;28;1180;-58
2023/05/13 00:43:12;;;;;;;2.97;1.93;;;;;;;10.12;57.10;93885.38;523978;28;777;-58
2023/05/13 00:43:28;;;;;;;2.90;2.00;;;;;;;10.03;57.10;93869.97;522182;28;1739;-59
2023/05/13 00:43:43;;;;;;;3.30;2.10;;;;;;;10.14;56.84;93889.06;523800;28;789;-58
2023/05/13 00:43:59;;;;;;;3.17;2.23;;;;;;;10.12;56.91;93888.88;522432;28;908;-58
2023/05/13 00:44:14;;;;;;;3.67;2.65;;;;;;;10.11;57.24;93887.41;522341;28;1220;-58
2023/05/13 00:44:30;;;;;;;5.30;2.73;;;;;;;10.10;57.26;93891.41;523756;28;1189;-58
2023/05/13 00:44:45;;;;;;;5.13;2.55;;;;;;;10.10;57.07;93896.16;524238;28;829;-59
2023/05/13 00:45:00;;;;;;;5.37;2.40;;;;;;;10.09;57.04;93886.44;523855;28;848;-58
2023/05/13 00:45:16;;;;;;;4.47;2.33;;;;;;;10.04;57.34;93882.50;523987;28;864;-58
2023/05/13 00:45:32;;;;;;;4.97;2.40;;;;;;;10.03;57.21;93878.25;523969;28;821;-58
2023/05/13 00:45:47;;;;;;;8.60;2.72;;;;;;;10.12;57.15;93885.38;524158;28;926;-58
2023/05/13 00:46:03;;;;;;;7.23;2.87;;;;;;;10.15;57.07;93892.59;523012;28;1094;-58
2023/05/13 00:46:18;;;;;;;4.93;2.55;;;;;;;10.15;57.10;93889.81;522121;28;1324;-60
2023/05/13 00:46:34;;;;;;;4.70;2.57;;;;;;;10.18;57.06;93894.28;523270;28;1092;-58
2023/05/13 00:46:49;;;;;;;6.28;2.75;;;;;;;10.16;56.86;93888.53;524326;28;785;-59
2023/05/13 00:47:05;;;;;;;5.27;2.87;;;;;;;10.17;56.94;93890.78;522278;28;919;-58
2023/05/13 00:47:21;;;;;;;4.78;2.75;;;;;;;10.19;56.79;93896.50;519960;28;1511;-59
2023/05/13 00:47:40;;;;;;;6.65;2.60;;;;;;;10.16;57.16;93897.56;521747;28;1969;-58
2023/05/13 00:47:56;;;;;;;5.70;2.58;;;;;;;10.01;56.91;93875.28;522114;28;955;-58
2023/05/13 00:48:11;;;;;;;5.70;2.80;;;;;;;10.07;56.89;93886.94;521965;28;943;-58
2023/05/13 00:48:27;;;;;;;5.63;2.80;;;;;;;10.06;56.81;93891.00;520030;28;1560;-58
2023/05/13 00:48:42;;;;;;;4.80;2.60;;;;;;;10.07;57.03;93884.19;520338;28;809;-58
2023/05/13 00:48:59;;;;;;;4.18;2.70;;;;;;;10.02;57.03;93887.81;517841;28;1043;-58
2023/05/13 00:49:14;;;;;;;4.50;2.55;;;;;;;10.09;57.25;93884.38;519024;28;853;-58
2023/05/13 00:49:31;;;;;;;4.13;2.42;;;;;;;10.10;57.30;93887.91;519993;28;891;-58
2023/05/13 00:49:47;;;;;;;4.40;2.80;;;;;;;10.13;57.39;93884.09;522049;28;1789;-58
2023/05/13 00:50:03;;;;;;;4.50;2.60;;;;;;;10.16;57.38;93889.28;519942;28;907;-58
2023/05/13 00:50:18;;;;;;;4.93;2.50;;;;;;;10.17;57.40;93887.28;517981;28;848;-58
2023/05/13 00:50:34;;;;;;;4.85;2.53;;;;;;;10.17;57.43;93887.28;519247;28;1071;-58
2023/05/13 00:50:49;;;;;;;5.83;2.67;;;;;;;10.20;57.76;93881.41;518168;28;1619;-58
2023/05/13 00:51:05;;;;;;;5.65;2.85;;;;;;;10.18;57.83;93889.50;517895;28;857;-58
2023/05/13 00:51:20;;;;;;;4.68;2.97;;;;;;;10.17;57.79;93887.28;518009;28;813;-58
2023/05/13 00:51:35;;;;;;;4.10;2.67;;;;;;;10.15;57.68;93881.56;518330;28;813;-58
2023/05/13 00:51:53;;;;;;;3.20;2.07;;;;;;;10.17;57.53;93885.25;520279;28;856;-58
2023/05/13 00:52:09;;;;;;;3.25;2.10;;;;;;;10.10;57.26;93874.09;522679;28;1169;-58
2023/05/13 00:52:24;;;;;;;3.22;2.33;;;;;;;10.19;57.46;93890.97;524870;28;800;-58
2023/05/13 00:52:41;;;;;;;5.27;2.73;;;;;;;10.10;57.32;93877.59;526513;28;809;-58
2023/05/13 00:52:56;;;;;;;5.95;3.35;;;;;;;10.17;57.58;93888.03;527028;28;911;-58
2023/05/13 00:53:12;;;;;;;4.88;3.60;;;;;;;10.16;57.76;93881.00;526250;28;837;-57
2023/05/13 00:53:27;;;;;;;3.77;3.33;;;;;;;10.16;57.64;93889.28;526202;28;1109;-58
2023/05/13 00:53:43;;;;;;;3.90;3.45;;;;;;;10.11;57.57;93878.38;524869;28;867;-58
2023/05/13 00:53:58;;;;;;;4.03;3.53;;;;;;;10.18;57.61;93886.72;524192;28;760;-58
2023/05/13 00:54:13;;;;;;;4.20;3.47;;;;;;;10.19;57.63;93890.97;524041;28;1154;-58
2023/05/13 00:54:29;;;;;;;5.60;3.40;;;;;;;10.19;58.05;93893.75;524155;28;868;-58
2023/05/13 00:54:44;;;;;;;4.38;2.88;;;;;;;10.21;58.04;93888.44;523965;28;884;-58
2023/05/13 00:55:00;;;;;;;3.37;2.60;;;;;;;10.23;58.15;93896.16;521451;28;1692;-58
2023/05/13 00:55:15;;;;;;;4.33;2.83;;;;;;;10.23;58.16;93890.63;522027;28;1727;-58
2023/05/13 00:55:31;;;;;;;3.97;2.72;;;;;;;10.24;58.30;93892.13;522031;28;927;-58
2023/05/13 00:55:46;;;;;;;3.37;2.80;;;;;;;10.26;58.59;93892.34;524514;28;892;-58
2023/05/13 00:56:02;;;;;;;4.80;2.97;;;;;;;10.26;58.66;93884.81;522547;28;1511;-58
2023/05/13 00:56:21;;;;;;;4.90;3.10;;;;;;;10.26;58.76;93890.34;522217;28;922;-58
2023/05/13 00:56:37;;;;;;;4.43;3.30;;;;;;;10.27;58.79;93891.06;523906;28;1058;-58
2023/05/13 00:56:55;;;;;;;4.28;3.20;;;;;;;10.28;58.86;93887.78;523987;28;849;-58
2023/05/13 00:57:10;;;;;;;5.20;3.30;;;;;;;10.27;58.98;93891.78;522116;28;893;-58
2023/05/13 00:57:26;;;;;;;5.63;3.00;;;;;;;10.27;59.47;93886.28;521940;28;1675;-58
2023/05/13 00:57:42;;;;;;;4.25;2.88;;;;;;;10.27;59.44;93889.03;521537;28;1090;-58
2023/05/13 00:57:57;;;;;;;3.20;2.90;;;;;;;10.27;59.87;93891.78;520041;28;1105;-58
2023/05/13 00:58:13;;;;;;;3.00;2.70;;;;;;;10.15;60.41;93885.06;519970;28;910;-58
2023/05/13 00:58:28;;;;;;;3.63;2.60;;;;;;;10.12;60.42;93888.88;520086;28;814;-58
2023/05/13 00:58:43;;;;;;;4.00;2.63;;;;;;;10.04;60.90;93887.28;522209;28;769;-58
2023/05/13 00:58:59;;;;;;;3.63;2.70;;;;;;;10.02;60.98;93895.34;522254;28;1596;-57
2023/05/13 00:59:14;;;;;;;2.80;2.30;;;;;;;10.02;61.05;93889.84;522353;28;753;-58
2023/05/13 00:59:30;;;;;;;3.33;2.20;;;;;;;10.00;61.01;93890.38;522595;28;1177;-58
2023/05/13 00:59:45;;;;;;;4.87;2.53;;;;;;;9.93;61.19;93889.00;524562;28;1202;-58
2023/05/13 01:00:02;;;;;;;3.95;2.47;;;;;;;9.93;61.80;93907.56;524285;28;874;-58
2023/05/13 01:00:18;;;;;;;4.18;2.33;;;;;;;9.87;62.30;93895.91;523036;28;863;-58
2023/05/13 01:00:38;;;;;;;4.50;2.47;;;;;;;9.80;62.79;93891.03;522588;28;781;-58
2023/05/13 01:01:14;;;;;;;4.68;2.90;;;;;;;9.81;63.31;93895.31;519994;28;954;-58
2023/05/13 01:01:52;;;;;;;4.72;4.22;;;;;;;9.84;63.70;93889.44;519897;28;1127;-58
2023/05/13 01:02:32;;;;;;;5.10;4.25;;;;;;;9.90;63.71;93883.81;519786;28;2171;-58
2023/05/13 01:02:56;;;;;;;3.60;2.90;;;;;;;9.94;63.33;93884.22;522625;28;943;-58
2023/05/13 01:03:19;;;;;;;5.10;2.90;;;;;;;9.97;63.54;93888.69;521365;28;991;-58
2023/05/13 01:04:00;;;;;;;6.03;2.50;;;;;;;10.03;63.68;93889.28;520333;28;990;-58
2023/05/13 01:04:23;;;;;;;3.42;2.30;;;;;;;9.83;63.70;93854.13;517917;28;944;-58
2023/05/13 01:05:01;;;;;;;3.95;2.40;;;;;;;10.06;63.60;93882.72;517978;28;1142;-58
2023/05/13 01:05:34;;;;;;;4.22;2.83;;;;;;;9.93;63.69;93882.75;520001;28;966;-57
2023/05/13 01:06:11;;;;;;;3.00;2.70;;;;;;;9.94;64.08;93881.47;523079;28;825;-58
2023/05/13 01:06:44;;;;;;;4.18;2.33;;;;;;;9.94;63.58;93875.94;523768;28;1458;-58
2023/05/13 01:07:18;;;;;;;4.13;2.95;;;;;;;9.91;63.60;93879.78;526642;28;1393;-58
2023/05/13 01:07:49;;;;;;;2.67;2.30;;;;;;;9.82;63.61;93880.97;526714;27;824;-57
2023/05/13 01:08:11;;;;;;;3.70;2.75;;;;;;;9.57;63.72;93846.63;524002;28;954;-57
2023/05/13 01:08:47;;;;;;;5.07;2.58;;;;;;;9.68;63.71;93873.25;524804;28;1002;-55
2023/05/13 01:09:13;;;;;;;3.67;2.60;;;;;;;9.67;63.93;93869.00;520342;28;1344;-57
2023/05/13 01:09:33;;;;;;;4.03;2.83;;;;;;;9.66;64.04;93871.03;517996;28;840;-59
2023/05/13 01:10:12;;;;;;;4.50;2.78;;;;;;;9.67;64.01;93871.75;517820;28;1361;-59
2023/05/13 01:10:52;;;;;;;4.15;2.80;;;;;;;9.50;64.21;93846.56;519879;28;1114;-59
2023/05/13 01:11:12;;;;;;;4.03;2.65;;;;;;;9.66;64.51;93875.78;520983;28;1186;-59
2023/05/13 01:11:30;;;;;;;5.22;2.75;;;;;;;9.63;64.50;93874.84;521683;28;1211;-59
2023/05/13 01:11:49;;;;;;;7.53;5.20;;;;;;;9.58;64.97;93872.19;521954;28;797;-59
2023/05/13 01:12:08;;;;;;;9.13;6.65;;;;;;;9.55;64.89;93876.03;521958;28;888;-59
2023/05/13 01:12:31;;;;;;;10.70;6.40;;;;;;;9.49;64.79;93875.38;522072;28;808;-59
2023/05/13 01:12:48;;;;;;;9.85;7.25;;;;;;;9.39;64.61;93868.81;521615;28;900;-59
2023/05/13 01:13:08;;;;;;;11.70;8.43;;;;;;;9.32;64.51;93878.47;519855;28;1090;-59
2023/05/13 01:13:26;;;;;;;9.63;6.47;;;;;;;9.28;64.31;93877.31;520009;28;857;-59
2023/05/13 01:13:44;;;;;;;8.32;5.20;;;;;;;9.26;64.04;93879.84;521501;28;845;-59
2023/05/13 01:14:07;;;;;;;6.63;4.85;;;;;;;9.16;63.99;93863.00;517916;28;1759;-59
2023/05/13 01:14:32;;;;;;;5.47;3.78;;;;;;;9.30;63.76;93878.25;515959;28;865;-59
2023/05/13 01:14:58;;;;;;;3.67;3.25;;;;;;;9.12;63.81;93849.53;515717;28;877;-59
2023/05/13 01:15:16;;;;;;;4.50;2.60;;;;;;;9.18;63.24;93879.00;514296;28;1238;-59
2023/05/13 01:15:32;;;;;;;5.30;2.58;;;;;;;9.13;62.81;93878.59;515875;28;1649;-59
2023/05/13 01:16:02;;;;;;;3.58;2.67;;;;;;;9.10;62.68;93873.38;515962;28;879;-60
2023/05/13 01:16:45;;;;;;;6.28;2.58;;;;;;;9.19;62.60;93881.22;517102;28;986;-59
2023/05/13 01:17:05;;;;;;;4.53;2.70;;;;;;;9.28;63.24;93874.53;524032;28;891;-59
2023/05/13 01:17:49;;;;;;;3.78;2.80;;;;;;;9.31;63.70;93868.00;526610;28;857;-59
2023/05/13 01:18:09;;;;;;;3.65;2.58;;;;;;;9.38;63.66;93876.34;526005;28;923;-58
2023/05/13 01:18:32;;;;;;;5.80;2.42;;;;;;;9.43;62.94;93872.75;523761;28;818;-59
2023/05/13 01:18:51;;;;;;;3.10;2.65;;;;;;;9.45;62.98;93869.44;522026;28;861;-59
2023/05/13 01:19:33;;;;;;;5.82;2.67;;;;;;;9.52;62.37;93874.31;523214;28;1153;-59
2023/05/13 01:19:53;;;;;;;5.88;2.30;;;;;;;9.54;62.18;93874.53;521922;28;940;-59
2023/05/13 01:20:09;;;;;;;5.10;2.17;;;;;;;9.52;61.90;93872.31;524066;28;824;-59
2023/05/13 01:20:26;;;;;;;4.53;2.40;;;;;;;9.55;61.95;93871.25;523847;28;777;-59
2023/05/13 01:20:42;;;;;;;4.10;2.40;;;;;;;9.49;62.30;93859.59;524282;28;1165;-59
2023/05/13 01:21:00;;;;;;;3.53;2.55;;;;;;;9.56;62.44;93864.47;523318;28;1082;-59
2023/05/13 01:21:19;;;;;;;4.00;2.83;;;;;;;9.56;62.61;93861.72;520272;28;881;-59
2023/05/13 01:21:36;;;;;;;4.25;2.80;;;;;;;9.62;62.63;93864.34;522244;28;933;-59
2023/05/13 01:21:52;;;;;;;5.20;2.78;;;;;;;9.60;62.58;93853.84;522030;28;890;-59
2023/05/13 01:22:07;;;;;;;5.13;2.75;;;;;;;9.67;62.88;93864.25;523377;28;1220;-59
2023/05/13 01:22:22;;;;;;;3.35;2.70;;;;;;;9.61;62.85;93862.88;524239;28;805;-59
2023/05/13 01:22:38;;;;;;;4.13;2.90;;;;;;;9.49;63.63;93858.84;524603;28;794;-58
2023/05/13 01:22:53;;;;;;;4.43;3.10;;;;;;;9.44;63.87;93863.19;524207;28;847;-59
2023/05/13 01:23:10;;;;;;;3.53;2.90;;;;;;;9.47;63.90;93869.66;522282;28;1027;-59
2023/05/13 01:23:25;;;;;;;2.88;2.55;;;;;;;9.46;64.06;93859.94;522170;28;951;-59
2023/05/13 01:23:41;;;;;;;4.30;2.90;;;;;;;9.47;64.01;93862.13;523589;28;988;-59
2023/05/13 01:23:56;;;;;;;4.93;3.27;;;;;;;9.45;64.45;93859.19;524339;28;812;-59
2023/05/13 01:24:11;;;;;;;4.05;2.92;;;;;;;9.46;64.70;93859.94;524157;28;819;-59
2023/05/13 01:24:27;;;;;;;3.27;2.50;;;;;;;9.46;64.64;93857.16;524245;28;879;-59
2023/05/13 01:24:42;;;;;;;4.43;2.60;;;;;;;9.46;64.85;93865.44;524587;28;945;-59
2023/05/13 01:24:58;;;;;;;4.32;2.58;;;;;;;9.45;64.74;93859.19;522467;28;1719;-59
2023/05/13 01:25:13;;;;;;;3.13;2.60;;;;;;;9.38;64.25;93845.28;523179;28;1322;-59